Time;durP1;ratioP1;P1;durP2;ratioP2;P2;SDS_P1;SDS_P2;PMS_P1;PMS_P2;Temp;Humidity;BMP_temperature;BMP_pressure;BME280_temperature;BME280_humidity;BME280_pressure;Samples;Min_cycle;Max_cycle;Signal;HPM_P1;HPM_P2
2023/09/13 00:00:58;;;;;;;22.87;10.30;;;;;;;;;;5030859;28;21322;-72
2023/09/13 00:03:23;;;;;;;23.90;10.23;;;;;;;;;;5027341;28;20296;-72
2023/09/13 00:05:48;;;;;;;17.13;9.20;;;;;;;;;;5029518;28;20626;-72
2023/09/13 00:08:13;;;;;;;15.00;8.80;;;;;;;;;;5029845;28;20022;-72
2023/09/13 00:10:38;;;;;;;17.33;9.60;;;;;;;;;;5024304;28;20564;-72
2023/09/13 00:13:04;;;;;;;19.50;10.47;;;;;;;;;;5031065;28;20025;-72
2023/09/13 00:15:29;;;;;;;21.73;9.30;;;;;;;;;;5031065;28;20033;-72
2023/09/13 00:17:54;;;;;;;19.95;10.60;;;;;;;;;;5031584;28;20299;-72
2023/09/13 00:20:19;;;;;;;17.23;9.67;;;;;;;;;;5031897;28;20470;-72
2023/09/13 00:22:45;;;;;;;22.97;9.47;;;;;;;;;;5034555;28;20264;-72
2023/09/13 00:25:10;;;;;;;21.95;9.13;;;;;;;;;;5030216;28;20304;-72
2023/09/13 00:27:35;;;;;;;18.38;9.43;;;;;;;;;;5028074;28;20076;-72
2023/09/13 00:30:01;;;;;;;20.97;10.80;;;;;;;;;;5032979;28;20033;-72
2023/09/13 00:32:26;;;;;;;18.98;10.88;;;;;;;;;;5028878;28;20236;-72
2023/09/13 00:34:51;;;;;;;24.40;10.97;;;;;;;;;;5031570;28;20024;-72
2023/09/13 00:37:16;;;;;;;24.97;11.67;;;;;;;;;;5031772;28;20684;-72
2023/09/13 00:39:41;;;;;;;20.93;11.97;;;;;;;;;;5029674;28;20829;-72
2023/09/13 00:42:07;;;;;;;28.30;11.15;;;;;;;;;;5031085;28;20280;-72
2023/09/13 00:44:32;;;;;;;23.52;11.02;;;;;;;;;;5022928;28;20101;-72
2023/09/13 00:46:57;;;;;;;18.83;10.83;;;;;;;;;;5023827;28;20021;-72
2023/09/13 00:49:22;;;;;;;18.02;10.85;;;;;;;;;;5029383;28;20647;-72
2023/09/13 00:51:49;;;;;;;27.67;11.82;;;;;;;;;;5021541;28;20028;-72
2023/09/13 00:54:14;;;;;;;42.50;19.98;;;;;;;;;;5027058;28;20025;-72
2023/09/13 00:56:41;;;;;;;36.35;17.38;;;;;;;;;;5029738;28;20422;-72
2023/09/13 00:59:08;;;;;;;42.50;19.25;;;;;;;;;;5028575;28;20049;-72
2023/09/13 01:01:34;;;;;;;34.45;19.30;;;;;;;;;;5025733;28;20043;-72
2023/09/13 01:03:59;;;;;;;38.63;19.40;;;;;;;;;;5029808;28;20472;-72
2023/09/13 01:06:24;;;;;;;44.22;21.85;;;;;;;;;;5023694;28;20028;-72
2023/09/13 01:08:49;;;;;;;44.72;18.77;;;;;;;;;;5027898;28;20475;-72
2023/09/13 01:11:15;;;;;;;40.60;19.53;;;;;;;;;;5029449;28;20013;-72
2023/09/13 01:13:40;;;;;;;43.80;20.83;;;;;;;;;;5025589;28;20800;-72
2023/09/13 01:16:14;;;;;;;48.30;20.37;;;;;;;;;;5026889;28;20774;-72
2023/09/13 01:18:45;;;;;;;44.42;19.52;;;;;;;;;;5021190;28;20401;-72
2023/09/13 01:21:10;;;;;;;51.40;19.73;;;;;;;;;;5023317;28;20033;-72
2023/09/13 01:23:45;;;;;;;44.87;23.37;;;;;;;;;;5030244;28;20104;-72
2023/09/13 01:26:29;;;;;;;42.53;21.25;;;;;;;;;;5025275;28;20087;-72
2023/09/13 01:28:54;;;;;;;43.55;21.42;;;;;;;;;;5027022;28;20027;-72
2023/09/13 01:31:21;;;;;;;44.42;21.77;;;;;;;;;;5028539;28;20282;-72
2023/09/13 01:33:46;;;;;;;46.28;22.63;;;;;;;;;;5027724;28;20411;-72
2023/09/13 01:36:11;;;;;;;45.92;22.10;;;;;;;;;;5028510;28;20043;-72
2023/09/13 01:38:37;;;;;;;44.10;21.70;;;;;;;;;;5028388;28;20033;-72
2023/09/13 01:41:04;;;;;;;43.63;20.55;;;;;;;;;;5029180;28;20287;-72
2023/09/13 01:43:30;;;;;;;40.05;21.02;;;;;;;;;;5028761;28;20017;-72
2023/09/13 01:45:56;;;;;;;39.92;20.13;;;;;;;;;;5027848;28;20083;-72
2023/09/13 01:48:22;;;;;;;41.38;20.63;;;;;;;;;;5025810;28;20025;-72
2023/09/13 01:50:47;;;;;;;42.95;19.13;;;;;;;;;;5024399;28;20041;-72
2023/09/13 01:53:13;;;;;;;46.50;20.67;;;;;;;;;;5029184;28;20100;-72
2023/09/13 01:55:38;;;;;;;42.60;18.80;;;;;;;;;;5028846;28;20060;-72
2023/09/13 01:58:03;;;;;;;43.53;19.13;;;;;;;;;;5029198;28;20268;-72
2023/09/13 02:00:28;;;;;;;42.20;18.55;;;;;;;;;;5027790;28;20022;-72
2023/09/13 02:02:53;;;;;;;50.40;21.07;;;;;;;;;;5025391;28;20025;-72
2023/09/13 02:05:18;;;;;;;52.07;19.63;;;;;;;;;;5027171;28;20053;-72
2023/09/13 02:07:44;;;;;;;48.03;19.20;;;;;;;;;;5027556;28;20060;-72
2023/09/13 02:10:09;;;;;;;40.70;18.17;;;;;;;;;;5030247;28;20264;-72
2023/09/13 02:12:34;;;;;;;39.70;18.73;;;;;;;;;;5031076;28;20253;-72
2023/09/13 02:14:59;;;;;;;50.97;20.23;;;;;;;;;;5027945;28;20013;-72
2023/09/13 02:17:24;;;;;;;58.15;21.90;;;;;;;;;;5029986;28;20264;-72
2023/09/13 02:19:50;;;;;;;67.60;27.00;;;;;;;;;;5029852;28;20067;-72
2023/09/13 02:22:16;;;;;;;58.15;23.58;;;;;;;;;;5028677;28;20311;-72
2023/09/13 02:24:41;;;;;;;54.33;23.23;;;;;;;;;;5029431;28;20014;-72
2023/09/13 02:27:06;;;;;;;48.87;21.23;;;;;;;;;;5029481;28;20510;-72
2023/09/13 02:29:31;;;;;;;60.90;24.30;;;;;;;;;;5030112;28;20310;-72
2023/09/13 02:31:56;;;;;;;59.55;23.58;;;;;;;;;;5029180;28;20326;-72
2023/09/13 02:34:22;;;;;;;53.33;22.93;;;;;;;;;;5027742;28;20485;-72
2023/09/13 02:36:47;;;;;;;62.30;25.27;;;;;;;;;;5028808;28;20288;-72
2023/09/13 02:39:31;;;;;;;55.97;22.50;;;;;;;;;;5029605;28;20025;-72
2023/09/13 02:41:57;;;;;;;60.92;23.33;;;;;;;;;;5025890;28;20017;-72
2023/09/13 02:44:22;;;;;;;62.30;22.67;;;;;;;;;;5027689;28;20392;-72
2023/09/13 02:46:47;;;;;;;55.80;23.53;;;;;;;;;;5024351;28;20299;-72
2023/09/13 02:49:12;;;;;;;62.87;23.87;;;;;;;;;;5027570;28;20313;-72
2023/09/13 02:51:37;;;;;;;63.77;22.73;;;;;;;;;;5027320;28;20026;-72
2023/09/13 02:54:04;;;;;;;58.20;24.77;;;;;;;;;;5031519;28;20061;-72
2023/09/13 02:56:29;;;;;;;54.80;24.98;;;;;;;;;;5030028;28;20769;-72
2023/09/13 02:58:54;;;;;;;62.22;26.67;;;;;;;;;;5032327;28;20036;-72
2023/09/13 03:01:21;;;;;;;59.93;24.43;;;;;;;;;;5032448;28;20029;-72
2023/09/13 03:03:47;;;;;;;61.17;23.88;;;;;;;;;;5029248;28;20018;-72
2023/09/13 03:06:15;;;;;;;61.07;26.00;;;;;;;;;;5032958;28;20021;-71
2023/09/13 03:08:41;;;;;;;66.55;28.15;;;;;;;;;;5032021;28;20279;-72
2023/09/13 03:11:13;;;;;;;67.38;29.75;;;;;;;;;;5025692;28;20025;-72
2023/09/13 03:13:38;;;;;;;67.90;28.20;;;;;;;;;;5025484;28;20036;-71
2023/09/13 03:16:13;;;;;;;67.30;29.50;;;;;;;;;;5031595;28;20017;-72
2023/09/13 03:18:39;;;;;;;67.40;29.17;;;;;;;;;;5032147;28;20018;-72
2023/09/13 03:21:08;;;;;;;70.32;30.23;;;;;;;;;;5029838;28;20079;-72
2023/09/13 03:23:33;;;;;;;70.53;31.25;;;;;;;;;;5031332;28;20018;-72
2023/09/13 03:25:58;;;;;;;73.63;30.38;;;;;;;;;;5023887;28;20108;-72
2023/09/13 03:28:24;;;;;;;86.33;30.10;;;;;;;;;;5030298;28;20026;-72
2023/09/13 03:30:49;;;;;;;80.70;32.73;;;;;;;;;;5030670;28;20033;-72
2023/09/13 03:33:14;;;;;;;84.82;34.13;;;;;;;;;;5032013;28;20300;-72
2023/09/13 03:35:39;;;;;;;90.43;33.30;;;;;;;;;;5027792;28;20032;-72
2023/09/13 03:38:04;;;;;;;85.93;35.27;;;;;;;;;;5030928;28;20275;-72
2023/09/13 03:40:30;;;;;;;97.53;34.20;;;;;;;;;;5026708;28;20646;-72
2023/09/13 03:42:55;;;;;;;85.17;33.87;;;;;;;;;;5031881;28;20040;-71
2023/09/13 03:45:20;;;;;;;99.10;35.07;;;;;;;;;;5027651;28;20025;-71
2023/09/13 03:47:45;;;;;;;96.57;33.77;;;;;;;;;;5027229;28;20281;-71
2023/09/13 03:50:10;;;;;;;82.33;30.90;;;;;;;;;;5029358;28;20264;-72
2023/09/13 03:52:36;;;;;;;81.70;31.50;;;;;;;;;;5029609;28;20355;-72
2023/09/13 03:55:01;;;;;;;85.80;32.63;;;;;;;;;;5031320;28;20934;-72
2023/09/13 03:57:26;;;;;;;79.70;30.77;;;;;;;;;;5027280;28;20271;-72
2023/09/13 03:59:51;;;;;;;81.00;30.83;;;;;;;;;;5029399;28;20268;-71
2023/09/13 04:02:16;;;;;;;79.57;32.33;;;;;;;;;;5026863;28;20292;-72
2023/09/13 04:04:41;;;;;;;83.33;31.27;;;;;;;;;;5031912;28;20462;-71
2023/09/13 04:07:07;;;;;;;77.30;29.93;;;;;;;;;;5020789;28;20814;-72
2023/09/13 04:09:32;;;;;;;80.07;31.35;;;;;;;;;;5031062;28;20282;-71
2023/09/13 04:11:57;;;;;;;77.77;31.00;;;;;;;;;;5028117;28;20487;-71
2023/09/13 04:14:22;;;;;;;86.97;33.23;;;;;;;;;;5032013;28;20021;-72
2023/09/13 04:16:47;;;;;;;83.73;32.80;;;;;;;;;;5031743;28;20162;-72
2023/09/13 04:19:12;;;;;;;86.13;34.17;;;;;;;;;;5028647;28;20112;-72
2023/09/13 04:21:38;;;;;;;88.73;33.13;;;;;;;;;;5029273;28;20091;-71
2023/09/13 04:24:03;;;;;;;83.33;32.47;;;;;;;;;;5029511;28;20270;-72
2023/09/13 04:26:28;;;;;;;94.97;34.10;;;;;;;;;;5031039;28;20419;-72
2023/09/13 04:28:53;;;;;;;93.87;37.40;;;;;;;;;;5032872;28;20020;-72
2023/09/13 04:31:18;;;;;;;92.23;33.57;;;;;;;;;;5031421;28;20731;-72
2023/09/13 04:33:45;;;;;;;88.70;34.20;;;;;;;;;;5031866;28;20260;-72
2023/09/13 04:36:10;;;;;;;98.10;32.80;;;;;;;;;;5031089;28;20272;-72
2023/09/13 04:38:35;;;;;;;94.77;34.33;;;;;;;;;;5031385;28;20080;-72
2023/09/13 04:41:03;;;;;;;59.33;24.10;;;;;;;;;;5033978;28;20381;-72
2023/09/13 04:43:28;;;;;;;76.72;28.73;;;;;;;;;;5027829;28;20025;-71
2023/09/13 04:45:53;;;;;;;66.23;27.43;;;;;;;;;;5025023;28;20089;-72
2023/09/13 04:48:19;;;;;;;88.87;29.40;;;;;;;;;;5026476;28;20048;-72
2023/09/13 04:50:44;;;;;;;77.75;30.67;;;;;;;;;;5028609;28;20033;-72
2023/09/13 04:53:25;;;;;;;95.53;34.43;;;;;;;;;;5048723;23;20101;-90
2023/09/13 04:59:00;;;;;;;126.80;45.20;;;;;;;;;;5020991;23;20049;-72
2023/09/13 05:01:25;;;;;;;118.90;40.03;;;;;;;;;;5040251;28;20259;-72
2023/09/13 05:03:52;;;;;;;112.00;40.53;;;;;;;;;;5030186;28;20032;-72
2023/09/13 05:06:17;;;;;;;115.32;42.90;;;;;;;;;;5028093;28;20272;-72
2023/09/13 05:08:42;;;;;;;109.80;41.72;;;;;;;;;;5027936;28;20100;-72
2023/09/13 05:11:07;;;;;;;134.60;46.73;;;;;;;;;;5029223;28;20036;-72
2023/09/13 05:13:33;;;;;;;135.83;44.40;;;;;;;;;;5029106;28;20314;-72
2023/09/13 05:15:58;;;;;;;132.45;45.53;;;;;;;;;;5025623;28;20685;-72
2023/09/13 05:18:23;;;;;;;131.97;42.03;;;;;;;;;;5027407;28;20410;-72
2023/09/13 05:20:48;;;;;;;136.95;46.42;;;;;;;;;;5024505;28;21100;-72
2023/09/13 05:23:14;;;;;;;134.17;46.60;;;;;;;;;;5023198;28;20032;-72
2023/09/13 05:25:43;;;;;;;133.25;45.33;;;;;;;;;;5026218;28;20462;-72
2023/09/13 05:28:08;;;;;;;141.25;47.20;;;;;;;;;;5025852;28;20140;-72
2023/09/13 05:30:34;;;;;;;129.63;43.57;;;;;;;;;;5024446;28;20462;-72
2023/09/13 05:32:59;;;;;;;142.48;46.60;;;;;;;;;;5025841;28;20037;-72
2023/09/13 05:35:24;;;;;;;144.20;50.38;;;;;;;;;;5024613;28;20392;-72
2023/09/13 05:37:49;;;;;;;128.23;43.50;;;;;;;;;;5023764;28;20025;-72
2023/09/13 05:40:15;;;;;;;124.38;43.28;;;;;;;;;;5023993;28;20272;-72
2023/09/13 05:42:40;;;;;;;121.85;42.83;;;;;;;;;;5019656;28;20518;-72
2023/09/13 05:45:05;;;;;;;120.23;42.57;;;;;;;;;;5018802;28;20013;-72
2023/09/13 05:47:31;;;;;;;131.23;43.13;;;;;;;;;;5025277;28;20626;-72
2023/09/13 05:49:56;;;;;;;117.25;43.53;;;;;;;;;;5027537;28;20055;-72
2023/09/13 05:52:21;;;;;;;114.97;42.63;;;;;;;;;;5023646;28;20033;-72
2023/09/13 05:54:46;;;;;;;118.47;43.27;;;;;;;;;;5025753;28;20037;-72
2023/09/13 05:57:12;;;;;;;119.57;39.63;;;;;;;;;;5026734;28;20276;-72
2023/09/13 05:59:39;;;;;;;120.65;42.90;;;;;;;;;;5025883;28;20025;-73
2023/09/13 06:02:05;;;;;;;125.75;42.25;;;;;;;;;;5024292;28;20024;-73
2023/09/13 06:04:30;;;;;;;119.78;42.22;;;;;;;;;;5026047;28;20026;-72
2023/09/13 06:06:56;;;;;;;112.13;41.37;;;;;;;;;;5027466;28;20067;-72
2023/09/13 06:09:22;;;;;;;117.57;42.63;;;;;;;;;;5021901;28;20758;-72
2023/09/13 06:11:47;;;;;;;121.60;42.33;;;;;;;;;;5024261;28;20267;-73
2023/09/13 06:14:12;;;;;;;103.95;39.13;;;;;;;;;;5025552;28;20018;-72
2023/09/13 06:16:38;;;;;;;116.35;39.33;;;;;;;;;;5022956;28;20088;-72
2023/09/13 06:19:03;;;;;;;115.68;39.83;;;;;;;;;;5024554;28;20024;-72
2023/09/13 06:21:28;;;;;;;103.70;37.47;;;;;;;;;;5025309;28;20037;-72
2023/09/13 06:23:53;;;;;;;109.60;36.83;;;;;;;;;;5027631;28;20022;-72
2023/09/13 06:26:18;;;;;;;98.37;38.37;;;;;;;;;;5023072;28;20051;-72
2023/09/13 06:28:44;;;;;;;98.57;39.67;;;;;;;;;;5025499;28;20284;-72
2023/09/13 06:31:09;;;;;;;97.32;34.65;;;;;;;;;;5027369;28;20112;-72
2023/09/13 06:33:34;;;;;;;96.80;34.65;;;;;;;;;;5025706;28;20053;-73
2023/09/13 06:35:59;;;;;;;88.47;34.63;;;;;;;;;;5023980;28;20423;-72
2023/09/13 06:38:25;;;;;;;82.55;33.70;;;;;;;;;;5026954;28;20451;-72
2023/09/13 06:40:51;;;;;;;86.30;35.30;;;;;;;;;;5025889;28;20018;-72
2023/09/13 06:43:18;;;;;;;87.00;34.33;;;;;;;;;;5023492;28;20493;-72
2023/09/13 06:45:43;;;;;;;87.60;36.97;;;;;;;;;;5025206;28;20045;-72
2023/09/13 06:48:08;;;;;;;80.80;33.50;;;;;;;;;;5023691;28;20052;-73
2023/09/13 06:50:33;;;;;;;79.70;33.55;;;;;;;;;;5025710;28;20355;-72
2023/09/13 06:52:58;;;;;;;73.20;30.37;;;;;;;;;;5025316;28;20140;-72
2023/09/13 06:55:23;;;;;;;87.90;32.67;;;;;;;;;;5024347;28;20310;-72
2023/09/13 06:57:51;;;;;;;78.37;32.73;;;;;;;;;;5026583;28;20725;-72
2023/09/13 07:00:16;;;;;;;83.25;31.13;;;;;;;;;;5019328;28;20351;-72
2023/09/13 07:02:41;;;;;;;86.38;33.15;;;;;;;;;;5028445;28;20096;-72
2023/09/13 07:05:06;;;;;;;77.82;30.63;;;;;;;;;;5026977;28;20022;-72
2023/09/13 07:07:32;;;;;;;69.97;29.25;;;;;;;;;;5029804;28;20022;-72
2023/09/13 07:09:57;;;;;;;67.13;27.87;;;;;;;;;;5025178;28;20021;-72
2023/09/13 07:12:22;;;;;;;63.93;28.00;;;;;;;;;;5022628;28;20324;-72
2023/09/13 07:14:47;;;;;;;59.10;25.87;;;;;;;;;;5025628;28;20340;-72
2023/09/13 07:17:15;;;;;;;56.28;26.67;;;;;;;;;;5024560;28;20302;-72
2023/09/13 07:19:40;;;;;;;57.85;26.17;;;;;;;;;;5024569;28;20029;-72
2023/09/13 07:22:05;;;;;;;56.13;26.73;;;;;;;;;;5022844;28;20025;-72
2023/09/13 07:24:30;;;;;;;54.80;27.70;;;;;;;;;;5024423;28;20287;-72
2023/09/13 07:26:56;;;;;;;63.10;27.03;;;;;;;;;;5021878;28;20018;-72
2023/09/13 07:29:21;;;;;;;57.70;26.23;;;;;;;;;;5020828;28;20280;-72
2023/09/13 07:31:46;;;;;;;60.50;26.15;;;;;;;;;;5022998;28;20030;-72
2023/09/13 07:34:11;;;;;;;67.47;26.20;;;;;;;;;;5026186;28;20392;-72
2023/09/13 07:36:37;;;;;;;53.30;24.47;;;;;;;;;;5024603;28;20092;-72
2023/09/13 07:39:03;;;;;;;52.70;23.42;;;;;;;;;;5025988;28;20040;-72
2023/09/13 07:41:28;;;;;;;54.53;24.52;;;;;;;;;;5028339;28;20032;-72
2023/09/13 07:43:53;;;;;;;51.27;22.97;;;;;;;;;;5023908;28;20033;-73
2023/09/13 07:46:19;;;;;;;47.00;22.48;;;;;;;;;;5031128;28;20268;-72
2023/09/13 07:48:44;;;;;;;57.63;24.27;;;;;;;;;;5030715;28;20120;-72
2023/09/13 07:51:09;;;;;;;53.53;24.40;;;;;;;;;;5028491;28;20021;-72
2023/09/13 07:53:34;;;;;;;49.40;22.70;;;;;;;;;;5027924;28;20275;-72
2023/09/13 07:55:59;;;;;;;52.57;23.27;;;;;;;;;;5028147;28;20335;-72
2023/09/13 07:58:25;;;;;;;47.67;23.27;;;;;;;;;;5031043;28;20438;-72
2023/09/13 08:00:50;;;;;;;56.42;23.77;;;;;;;;;;5029261;28;20040;-72
2023/09/13 08:03:15;;;;;;;53.90;23.87;;;;;;;;;;5029266;28;20063;-72
2023/09/13 08:05:42;;;;;;;47.97;24.48;;;;;;;;;;5028522;28;20612;-72
2023/09/13 08:08:09;;;;;;;52.38;24.33;;;;;;;;;;5028643;28;20064;-72
2023/09/13 08:10:34;;;;;;;53.05;23.90;;;;;;;;;;5027667;28;20027;-72
2023/09/13 08:12:59;;;;;;;49.38;23.75;;;;;;;;;;5029974;28;20029;-71
2023/09/13 08:15:24;;;;;;;48.80;22.52;;;;;;;;;;5031372;28;20488;-72
2023/09/13 08:17:49;;;;;;;42.40;20.63;;;;;;;;;;5030392;28;20125;-72
2023/09/13 08:20:15;;;;;;;50.57;23.03;;;;;;;;;;5025375;28;20267;-73
2023/09/13 08:22:40;;;;;;;43.53;21.40;;;;;;;;;;5030767;28;20029;-73
2023/09/13 08:25:06;;;;;;;40.87;21.40;;;;;;;;;;5029047;28;20442;-72
2023/09/13 08:27:31;;;;;;;43.47;19.65;;;;;;;;;;5029763;28;20638;-72
2023/09/13 08:29:57;;;;;;;38.03;19.77;;;;;;;;;;5030327;28;20024;-72
2023/09/13 08:32:22;;;;;;;41.08;18.80;;;;;;;;;;5031269;28;20021;-72
2023/09/13 08:34:47;;;;;;;53.40;20.58;;;;;;;;;;5026121;28;20104;-72
2023/09/13 08:37:13;;;;;;;41.10;19.07;;;;;;;;;;5029741;28;20088;-73
2023/09/13 08:39:38;;;;;;;44.90;19.83;;;;;;;;;;5029720;28;20383;-72
2023/09/13 08:42:03;;;;;;;37.97;19.50;;;;;;;;;;5030398;28;20048;-74
2023/09/13 08:44:29;;;;;;;39.80;18.65;;;;;;;;;;5025414;28;20716;-72
2023/09/13 08:46:56;;;;;;;40.45;17.80;;;;;;;;;;5026442;28;20310;-72
2023/09/13 08:49:25;;;;;;;44.13;19.00;;;;;;;;;;5028508;28;20018;-72
2023/09/13 08:51:53;;;;;;;37.05;16.58;;;;;;;;;;5026915;28;20025;-72
2023/09/13 08:54:19;;;;;;;40.15;18.90;;;;;;;;;;5027839;28;20048;-72
2023/09/13 08:56:45;;;;;;;45.35;18.45;;;;;;;;;;5029184;28;20479;-72
2023/09/13 08:59:14;;;;;;;43.33;19.58;;;;;;;;;;5028334;28;20017;-72
2023/09/13 09:01:42;;;;;;;40.40;18.77;;;;;;;;;;5027707;28;20033;-72
2023/09/13 09:04:09;;;;;;;36.45;18.23;;;;;;;;;;5026050;28;20788;-71
2023/09/13 09:06:35;;;;;;;49.15;19.33;;;;;;;;;;5028809;28;20032;-72
2023/09/13 09:09:00;;;;;;;37.83;16.73;;;;;;;;;;5027574;28;20025;-72
2023/09/13 09:11:26;;;;;;;34.33;17.88;;;;;;;;;;5028293;28;20027;-72
2023/09/13 09:13:55;;;;;;;34.30;17.35;;;;;;;;;;5026346;28;20035;-72
2023/09/13 09:16:21;;;;;;;36.28;17.27;;;;;;;;;;5026551;28;20033;-72
2023/09/13 09:18:47;;;;;;;40.97;16.08;;;;;;;;;;5028306;28;20946;-72
2023/09/13 09:21:12;;;;;;;36.08;16.67;;;;;;;;;;5025787;28;20017;-73
2023/09/13 09:23:38;;;;;;;37.20;16.88;;;;;;;;;;5023629;28;20014;-74
2023/09/13 09:26:04;;;;;;;38.78;16.83;;;;;;;;;;5026635;28;20027;-71
2023/09/13 09:28:29;;;;;;;40.97;15.52;;;;;;;;;;5028658;28;20013;-71
2023/09/13 09:30:55;;;;;;;41.67;17.27;;;;;;;;;;5027316;28;20372;-72
2023/09/13 09:33:28;;;;;;;35.88;16.48;;;;;;;;;;5027987;28;20036;-73
2023/09/13 09:35:54;;;;;;;40.00;16.92;;;;;;;;;;5027120;28;20472;-72
2023/09/13 09:38:20;;;;;;;39.25;17.33;;;;;;;;;;5028627;28;20434;-71
2023/09/13 09:40:45;;;;;;;34.72;17.23;;;;;;;;;;5024068;28;20029;-72
2023/09/13 09:43:10;;;;;;;42.17;16.47;;;;;;;;;;5029466;28;20068;-73
2023/09/13 09:45:35;;;;;;;39.57;16.57;;;;;;;;;;5029439;28;20049;-72
2023/09/13 09:48:01;;;;;;;36.83;16.07;;;;;;;;;;5028360;28;20022;-72
2023/09/13 09:50:30;;;;;;;37.17;15.70;;;;;;;;;;5026198;28;20288;-71
2023/09/13 09:52:55;;;;;;;36.83;15.80;;;;;;;;;;5044044;28;20279;-71
2023/09/13 09:55:23;;;;;;;31.50;14.80;;;;;;;;;;5028020;28;20116;-71
2023/09/13 09:57:48;;;;;;;33.05;14.45;;;;;;;;;;5024370;28;20280;-71
2023/09/13 10:00:14;;;;;;;34.38;14.77;;;;;;;;;;5029433;28;20024;-73
2023/09/13 10:02:39;;;;;;;29.02;14.40;;;;;;;;;;5025566;28;20017;-72
2023/09/13 10:05:05;;;;;;;34.17;14.88;;;;;;;;;;5026701;28;20022;-71
2023/09/13 10:07:30;;;;;;;34.42;16.20;;;;;;;;;;5027597;28;20112;-75
2023/09/13 10:09:55;;;;;;;30.75;13.85;;;;;;;;;;5025026;28;20025;-74
2023/09/13 10:12:21;;;;;;;31.00;14.32;;;;;;;;;;5025412;28;20033;-71
2023/09/13 10:14:46;;;;;;;31.90;14.27;;;;;;;;;;5028339;28;20104;-71
2023/09/13 10:17:11;;;;;;;35.67;14.02;;;;;;;;;;5019649;28;20025;-72
2023/09/13 10:19:37;;;;;;;31.90;13.15;;;;;;;;;;5026359;28;20102;-72
2023/09/13 10:22:02;;;;;;;23.63;12.60;;;;;;;;;;5025819;28;20104;-71
2023/09/13 10:24:33;;;;;;;29.92;13.07;;;;;;;;;;5027513;28;20053;-72
2023/09/13 10:26:58;;;;;;;27.17;12.65;;;;;;;;;;5028127;28;20014;-71
2023/09/13 10:29:34;;;;;;;29.92;11.23;;;;;;;;;;5026934;28;20022;-71
2023/09/13 10:32:02;;;;;;;27.40;12.77;;;;;;;;;;5025984;28;20104;-71
2023/09/13 10:34:29;;;;;;;24.13;11.70;;;;;;;;;;5023526;28;20434;-72
2023/09/13 10:37:05;;;;;;;23.70;10.88;;;;;;;;;;5026389;28;20029;-71
2023/09/13 10:39:32;;;;;;;30.35;12.43;;;;;;;;;;5024608;28;20079;-71
2023/09/13 10:42:06;;;;;;;26.38;13.38;;;;;;;;;;5026547;28;20022;-71
2023/09/13 10:44:33;;;;;;;31.85;12.30;;;;;;;;;;5028160;28;20022;-71
2023/09/13 10:46:58;;;;;;;30.98;13.70;;;;;;;;;;5024262;28;20017;-71
2023/09/13 10:49:24;;;;;;;23.90;13.00;;;;;;;;;;5026942;28;20422;-71
2023/09/13 10:51:49;;;;;;;25.10;11.82;;;;;;;;;;5024663;28;20774;-71
2023/09/13 10:54:16;;;;;;;35.60;13.52;;;;;;;;;;5022223;28;20021;-71
2023/09/13 10:56:41;;;;;;;22.17;10.57;;;;;;;;;;5025395;28;20025;-71
2023/09/13 10:59:07;;;;;;;23.45;11.00;;;;;;;;;;5027965;28;20036;-72
2023/09/13 11:01:34;;;;;;;20.77;9.68;;;;;;;;;;5026169;28;20070;-71
2023/09/13 11:03:59;;;;;;;17.10;8.77;;;;;;;;;;5025013;28;20060;-72
2023/09/13 11:06:25;;;;;;;18.40;8.13;;;;;;;;;;5025864;28;20045;-71
2023/09/13 11:08:50;;;;;;;23.35;9.75;;;;;;;;;;5022153;28;20519;-71
2023/09/13 11:11:19;;;;;;;15.85;8.13;;;;;;;;;;5020967;28;20026;-71
2023/09/13 11:13:45;;;;;;;22.40;9.32;;;;;;;;;;5030086;28;20028;-71
2023/09/13 11:16:13;;;;;;;17.67;9.13;;;;;;;;;;5030736;28;20032;-71
2023/09/13 11:18:46;;;;;;;15.88;8.45;;;;;;;;;;5027479;28;20423;-69
2023/09/13 11:21:27;;;;;;;19.70;9.40;;;;;;;;;;5029162;28;20559;-73
2023/09/13 11:23:55;;;;;;;16.83;8.38;;;;;;;;;;5030729;28;20013;-71
2023/09/13 11:26:40;;;;;;;18.40;8.02;;;;;;;;;;5031642;28;20013;-72
2023/09/13 11:29:19;;;;;;;16.52;8.43;;;;;;;;;;5028935;28;20361;-70
2023/09/13 11:32:06;;;;;;;14.57;7.90;;;;;;;;;;5030511;28;20111;-71
2023/09/13 11:34:34;;;;;;;18.83;8.27;;;;;;;;;;5025772;28;20021;-73
2023/09/13 11:37:00;;;;;;;19.73;8.40;;;;;;;;;;5030852;28;20049;-70
2023/09/13 11:39:26;;;;;;;15.55;7.68;;;;;;;;;;5027886;28;20053;-70
2023/09/13 11:41:53;;;;;;;11.82;7.00;;;;;;;;;;5029425;28;20466;-70
2023/09/13 11:44:19;;;;;;;12.93;7.70;;;;;;;;;;5030837;28;20487;-70
2023/09/13 11:46:47;;;;;;;19.73;8.10;;;;;;;;;;5031125;28;20472;-70
2023/09/13 11:49:17;;;;;;;14.02;8.38;;;;;;;;;;5028756;28;20345;-70
2023/09/13 11:51:46;;;;;;;20.48;8.43;;;;;;;;;;5030958;28;20044;-70
2023/09/13 11:54:15;;;;;;;16.80;7.13;;;;;;;;;;5025986;28;20095;-70
2023/09/13 11:56:43;;;;;;;15.95;7.72;;;;;;;;;;5030372;28;20504;-70
2023/09/13 11:59:08;;;;;;;13.07;8.13;;;;;;;;;;5023223;28;20030;-70
2023/09/13 12:01:34;;;;;;;13.18;6.45;;;;;;;;;;5021848;28;20510;-71
2023/09/13 12:04:03;;;;;;;11.80;6.97;;;;;;;;;;5018970;28;20376;-71
2023/09/13 12:06:28;;;;;;;6.23;4.30;;;;;;;;;;5030906;28;20380;-71
2023/09/13 12:08:55;;;;;;;13.87;5.60;;;;;;;;;;5026281;28;20022;-70
2023/09/13 12:11:21;;;;;;;8.48;4.47;;;;;;;;;;5030072;28;20283;-70
2023/09/13 12:13:47;;;;;;;12.43;4.90;;;;;;;;;;5024736;28;20022;-73
2023/09/13 12:16:13;;;;;;;12.38;5.35;;;;;;;;;;5022969;28;20028;-72
2023/09/13 12:18:39;;;;;;;12.27;6.05;;;;;;;;;;5023474;28;20025;-72
2023/09/13 12:21:06;;;;;;;9.90;6.15;;;;;;;;;;5024075;28;20032;-72
2023/09/13 12:23:36;;;;;;;11.68;6.88;;;;;;;;;;5024262;28;20022;-72
2023/09/13 12:26:02;;;;;;;12.13;7.35;;;;;;;;;;5029093;28;20108;-72
2023/09/13 12:28:29;;;;;;;12.95;7.05;;;;;;;;;;5029077;28;20018;-72
2023/09/13 12:30:55;;;;;;;11.35;7.40;;;;;;;;;;5029345;28;20022;-73
2023/09/13 12:33:21;;;;;;;12.32;7.88;;;;;;;;;;5025415;28;20094;-73
2023/09/13 12:35:47;;;;;;;18.25;8.48;;;;;;;;;;5029367;28;20161;-73
2023/09/13 12:38:12;;;;;;;18.08;8.75;;;;;;;;;;5029444;28;20179;-75
2023/09/13 12:40:37;;;;;;;13.13;7.67;;;;;;;;;;5028324;28;20025;-73
2023/09/13 12:43:03;;;;;;;13.00;6.20;;;;;;;;;;5030296;28;20283;-74
2023/09/13 12:45:31;;;;;;;12.43;5.97;;;;;;;;;;5027022;28;20018;-75
2023/09/13 12:47:57;;;;;;;12.30;7.35;;;;;;;;;;5030328;28;20025;-74
2023/09/13 12:50:22;;;;;;;13.23;6.88;;;;;;;;;;5029708;28;20025;-73
2023/09/13 12:52:50;;;;;;;9.60;6.63;;;;;;;;;;5028304;28;20022;-73
2023/09/13 12:55:15;;;;;;;7.85;5.68;;;;;;;;;;5028797;28;20045;-73
2023/09/13 12:57:40;;;;;;;9.18;6.63;;;;;;;;;;5027317;28;20511;-73
2023/09/13 13:00:10;;;;;;;10.30;7.90;;;;;;;;;;5029105;28;20091;-73
2023/09/13 13:02:35;;;;;;;13.13;7.50;;;;;;;;;;5027793;28;20288;-73
2023/09/13 13:05:01;;;;;;;13.55;7.90;;;;;;;;;;5027238;28;20109;-75
2023/09/13 13:07:33;;;;;;;15.57;8.60;;;;;;;;;;5030141;28;20239;-73
2023/09/13 13:10:04;;;;;;;15.18;9.00;;;;;;;;;;5026440;28;20265;-73
2023/09/13 13:12:30;;;;;;;18.50;9.98;;;;;;;;;;5029359;28;20032;-73
2023/09/13 13:14:55;;;;;;;17.77;9.88;;;;;;;;;;5025456;28;20021;-73
2023/09/13 13:17:22;;;;;;;14.20;10.13;;;;;;;;;;5027403;28;20407;-73
2023/09/13 13:19:48;;;;;;;14.05;9.85;;;;;;;;;;5028360;28;20048;-74
2023/09/13 13:22:17;;;;;;;18.55;9.75;;;;;;;;;;5028544;28;20022;-73
2023/09/13 13:24:44;;;;;;;16.42;10.50;;;;;;;;;;5025405;28;20499;-73
2023/09/13 13:27:09;;;;;;;21.15;11.27;;;;;;;;;;5026383;28;20017;-73
2023/09/13 13:29:35;;;;;;;16.02;10.73;;;;;;;;;;5027926;28;20183;-74
2023/09/13 13:32:00;;;;;;;15.77;10.43;;;;;;;;;;5028836;28;20056;-73
2023/09/13 13:34:26;;;;;;;15.57;11.85;;;;;;;;;;5026215;28;20055;-73
2023/09/13 13:36:51;;;;;;;18.07;11.47;;;;;;;;;;5023535;28;20059;-74
2023/09/13 13:39:16;;;;;;;18.93;11.60;;;;;;;;;;5029651;28;20268;-73
2023/09/13 13:41:42;;;;;;;17.15;11.68;;;;;;;;;;5028713;28;20620;-74
2023/09/13 13:44:07;;;;;;;15.05;11.35;;;;;;;;;;5028788;28;20025;-73
2023/09/13 13:46:33;;;;;;;17.67;11.35;;;;;;;;;;5029835;28;20009;-73
2023/09/13 13:48:58;;;;;;;15.57;11.23;;;;;;;;;;5027314;28;20532;-73
2023/09/13 13:51:24;;;;;;;17.83;11.82;;;;;;;;;;5029178;28;20271;-73
2023/09/13 13:53:49;;;;;;;18.95;11.88;;;;;;;;;;5025174;28;20014;-73
2023/09/13 13:56:14;;;;;;;18.70;12.48;;;;;;;;;;5028793;28;20036;-73
2023/09/13 13:58:40;;;;;;;22.60;12.60;;;;;;;;;;5025800;28;20043;-73
2023/09/13 14:01:06;;;;;;;21.38;14.48;;;;;;;;;;5027654;28;20658;-73
2023/09/13 14:03:31;;;;;;;18.58;13.45;;;;;;;;;;5025491;28;20026;-73
2023/09/13 14:05:56;;;;;;;20.10;13.67;;;;;;;;;;5022411;28;20021;-74
2023/09/13 14:08:23;;;;;;;20.60;14.20;;;;;;;;;;5025710;28;20362;-73
2023/09/13 14:10:48;;;;;;;19.27;13.32;;;;;;;;;;5027264;28;20071;-74
2023/09/13 14:13:15;;;;;;;19.00;13.20;;;;;;;;;;5026770;28;20061;-73
2023/09/13 14:15:40;;;;;;;18.52;10.18;;;;;;;;;;5019557;28;20018;-73